sensor_id;sensor_type;location;lat;lon;timestamp;pressure;altitude;pressure_sealevel;temperature;humidity
45467;BME280;31212;49.734;8.490;2023-02-15T00:00:23;102148.09;;;0.99;100.00
45467;BME280;31212;49.734;8.490;2023-02-15T00:02:51;102151.03;;;0.80;100.00
45467;BME280;31212;49.734;8.490;2023-02-15T00:05:18;102147.81;;;0.83;100.00
45467;BME280;31212;49.734;8.490;2023-02-15T00:07:44;102149.81;;;0.63;100.00
45467;BME280;31212;49.734;8.490;2023-02-15T00:10:11;102150.38;;;0.71;100.00
45467;BME280;31212;49.734;8.490;2023-02-15T00:12:37;102150.06;;;0.78;100.00
45467;BME280;31212;49.734;8.490;2023-02-15T00:15:04;102148.69;;;0.83;100.00
45467;BME280;31212;49.734;8.490;2023-02-15T00:17:30;102139.44;;;0.97;100.00
45467;BME280;31212;49.734;8.490;2023-02-15T00:19:58;102132.84;;;0.64;100.00
45467;BME280;31212;49.734;8.490;2023-02-15T00:22:25;102136.25;;;0.76;100.00
45467;BME280;31212;49.734;8.490;2023-02-15T00:24:52;102131.16;;;0.64;100.00
45467;BME280;31212;49.734;8.490;2023-02-15T00:27:18;102134.38;;;0.62;100.00
45467;BME280;31212;49.734;8.490;2023-02-15T00:29:46;102133.16;;;0.69;100.00
45467;BME280;31212;49.734;8.490;2023-02-15T00:32:13;102134.38;;;0.62;100.00
45467;BME280;31212;49.734;8.490;2023-02-15T00:34:39;102128.19;;;0.46;100.00
45467;BME280;31212;49.734;8.490;2023-02-15T00:37:07;102127.28;;;0.46;100.00
45467;BME280;31212;49.734;8.490;2023-02-15T00:39:34;102128.06;;;0.45;100.00
45467;BME280;31212;49.734;8.490;2023-02-15T00:42:00;102130.38;;;0.42;100.00
45467;BME280;31212;49.734;8.490;2023-02-15T00:44:27;102130.53;;;0.43;100.00
45467;BME280;31212;49.734;8.490;2023-02-15T00:46:55;102127.63;;;0.50;100.00
45467;BME280;31212;49.734;8.490;2023-02-15T00:49:21;102128.50;;;0.51;100.00
45467;BME280;31212;49.734;8.490;2023-02-15T00:51:48;102128.06;;;0.45;100.00
45467;BME280;31212;49.734;8.490;2023-02-15T00:54:16;102132.28;;;0.68;100.00
45467;BME280;31212;49.734;8.490;2023-02-15T00:56:42;102127.16;;;0.56;100.00
45467;BME280;31212;49.734;8.490;2023-02-15T00:59:09;102125.94;;;0.51;100.00
45467;BME280;31212;49.734;8.490;2023-02-15T01:01:35;102125.63;;;0.46;100.00
45467;BME280;31212;49.734;8.490;2023-02-15T01:04:02;102130.50;;;0.55;100.00
45467;BME280;31212;49.734;8.490;2023-02-15T01:06:28;102128.50;;;0.63;100.00
45467;BME280;31212;49.734;8.490;2023-02-15T01:08:55;102130.69;;;0.70;100.00
45467;BME280;31212;49.734;8.490;2023-02-15T01:11:23;102120.28;;;0.55;100.00
45467;BME280;31212;49.734;8.490;2023-02-15T01:13:51;102115.97;;;0.54;100.00
45467;BME280;31212;49.734;8.490;2023-02-15T01:16:18;102124.59;;;0.68;100.00
45467;BME280;31212;49.734;8.490;2023-02-15T01:18:45;102116.50;;;0.62;100.00
45467;BME280;31212;49.734;8.490;2023-02-15T01:21:17;102118.47;;;0.66;100.00
45467;BME280;31212;49.734;8.490;2023-02-15T01:23:44;102113.41;;;0.54;100.00
45467;BME280;31212;49.734;8.490;2023-02-15T01:26:12;102107.38;;;0.65;100.00
45467;BME280;31212;49.734;8.490;2023-02-15T01:28:40;102112.19;;;0.61;100.00
45467;BME280;31212;49.734;8.490;2023-02-15T01:31:07;102105.69;;;0.78;100.00
45467;BME280;31212;49.734;8.490;2023-02-15T01:33:35;102101.16;;;0.62;100.00
45467;BME280;31212;49.734;8.490;2023-02-15T01:36:02;102097.34;;;0.69;100.00
45467;BME280;31212;49.734;8.490;2023-02-15T01:38:31;102112.47;;;0.77;100.00
45467;BME280;31212;49.734;8.490;2023-02-15T01:40:57;102109.09;;;0.90;100.00
45467;BME280;31212;49.734;8.490;2023-02-15T01:43:48;102099.69;;;0.77;100.00
45467;BME280;31212;49.734;8.490;2023-02-15T01:46:17;102095.44;;;0.78;100.00
45467;BME280;31212;49.734;8.490;2023-02-15T01:48:47;102090.06;;;0.61;100.00
45467;BME280;31212;49.734;8.490;2023-02-15T01:51:17;102092.50;;;0.72;100.00
45467;BME280;31212;49.734;8.490;2023-02-15T01:53:49;102095.72;;;0.69;100.00
45467;BME280;31212;49.734;8.490;2023-02-15T01:56:19;102093.94;;;0.68;100.00
45467;BME280;31212;49.734;8.490;2023-02-15T01:58:51;102097.25;;;0.79;100.00
45467;BME280;31212;49.734;8.490;2023-02-15T02:01:20;102089.03;;;0.71;100.00
45467;BME280;31212;49.734;8.490;2023-02-15T02:03:55;102093.56;;;0.75;100.00
45467;BME280;31212;49.734;8.490;2023-02-15T02:06:23;102089.13;;;0.73;100.00
45467;BME280;31212;49.734;8.490;2023-02-15T02:08:50;102081.16;;;0.68;100.00
45467;BME280;31212;49.734;8.490;2023-02-15T02:11:17;102081.25;;;0.70;100.00
45467;BME280;31212;49.734;8.490;2023-02-15T02:13:46;102086.56;;;0.73;100.00
45467;BME280;31212;49.734;8.490;2023-02-15T02:16:16;102072.38;;;0.64;100.00
45467;BME280;31212;49.734;8.490;2023-02-15T02:18:58;102076.72;;;0.65;100.00
45467;BME280;31212;49.734;8.490;2023-02-15T02:24:40;102066.59;;;0.67;100.00
45467;BME280;31212;49.734;8.490;2023-02-15T02:27:19;102069.59;;;0.61;100.00
45467;BME280;31212;49.734;8.490;2023-02-15T02:33:20;102064.69;;;0.76;100.00
45467;BME280;31212;49.734;8.490;2023-02-15T02:35:57;102066.78;;;0.70;100.00
45467;BME280;31212;49.734;8.490;2023-02-15T02:38:28;102058.91;;;0.67;100.00
45467;BME280;31212;49.734;8.490;2023-02-15T02:41:08;102059.25;;;0.72;100.00
45467;BME280;31212;49.734;8.490;2023-02-15T02:43:45;102057.81;;;0.63;100.00
45467;BME280;31212;49.734;8.490;2023-02-15T02:46:19;102049.06;;;0.60;100.00
45467;BME280;31212;49.734;8.490;2023-02-15T02:48:48;102056.16;;;0.64;100.00
45467;BME280;31212;49.734;8.490;2023-02-15T02:51:15;102056.47;;;0.69;100.00
45467;BME280;31212;49.734;8.490;2023-02-15T02:53:50;102065.25;;;0.72;100.00
45467;BME280;31212;49.734;8.490;2023-02-15T02:56:21;102056.22;;;0.77;100.00
45467;BME280;31212;49.734;8.490;2023-02-15T02:58:56;102050.22;;;0.77;100.00
45467;BME280;31212;49.734;8.490;2023-02-15T03:01:27;102052.66;;;0.75;100.00
45467;BME280;31212;49.734;8.490;2023-02-15T03:03:57;102055.47;;;0.78;100.00
45467;BME280;31212;49.734;8.490;2023-02-15T03:06:29;102047.78;;;0.78;100.00
45467;BME280;31212;49.734;8.490;2023-02-15T03:09:03;102048.19;;;0.84;100.00
45467;BME280;31212;49.734;8.490;2023-02-15T03:11:40;102051.53;;;0.83;100.00
45467;BME280;31212;49.734;8.490;2023-02-15T03:14:07;102045.44;;;0.81;100.00
45467;BME280;31212;49.734;8.490;2023-02-15T03:16:34;102047.09;;;0.81;100.00
45467;BME280;31212;49.734;8.490;2023-02-15T03:19:05;102053.09;;;0.81;100.00
45467;BME280;31212;49.734;8.490;2023-02-15T03:21:35;102055.75;;;0.83;100.00
45467;BME280;31212;49.734;8.490;2023-02-15T03:24:09;102050.94;;;0.88;100.00
45467;BME280;31212;49.734;8.490;2023-02-15T03:26:37;102054.22;;;0.85;100.00
45467;BME280;31212;49.734;8.490;2023-02-15T03:29:07;102046.41;;;0.83;100.00
45467;BME280;31212;49.734;8.490;2023-02-15T03:31:40;102045.53;;;0.83;100.00
45467;BME280;31212;49.734;8.490;2023-02-15T03:34:11;102050.94;;;0.88;100.00
45467;BME280;31212;49.734;8.490;2023-02-15T03:36:43;102059.09;;;0.82;100.00
45467;BME280;31212;49.734;8.490;2023-02-15T03:39:16;102059.53;;;0.88;100.00
45467;BME280;31212;49.734;8.490;2023-02-15T03:41:48;102046.31;;;0.82;100.00
45467;BME280;31212;49.734;8.490;2023-02-15T03:44:19;102048.75;;;0.80;100.00
45467;BME280;31212;49.734;8.490;2023-02-15T03:46:51;102048.75;;;0.80;100.00
45467;BME280;31212;49.734;8.490;2023-02-15T03:49:24;102046.97;;;0.79;100.00
45467;BME280;31212;49.734;8.490;2023-02-15T03:51:53;102047.34;;;0.72;100.00
45467;BME280;31212;49.734;8.490;2023-02-15T03:54:22;102048.78;;;0.69;100.00
45467;BME280;31212;49.734;8.490;2023-02-15T03:57:12;102041.47;;;0.73;100.00
45467;BME280;31212;49.734;8.490;2023-02-15T03:59:57;102043.78;;;0.70;100.00
45467;BME280;31212;49.734;8.490;2023-02-15T04:02:52;102038.69;;;0.70;100.00
45467;BME280;31212;49.734;8.490;2023-02-15T04:05:23;102039.81;;;0.62;100.00
45467;BME280;31212;49.734;8.490;2023-02-15T04:07:49;102038.50;;;0.55;100.00
45467;BME280;31212;49.734;8.490;2023-02-15T04:10:16;102039.72;;;0.60;100.00
45467;BME280;31212;49.734;8.490;2023-02-15T04:13:00;102037.31;;;0.50;100.00
45467;BME280;31212;49.734;8.490;2023-02-15T04:15:27;102031.66;;;0.42;100.00
45467;BME280;31212;49.734;8.490;2023-02-15T04:18:11;102036.31;;;0.48;100.00
45467;BME280;31212;49.734;8.490;2023-02-15T04:20:39;102037.84;;;0.46;100.00
45467;BME280;31212;49.734;8.490;2023-02-15T04:23:23;102038.09;;;0.49;100.00
45467;BME280;31212;49.734;8.490;2023-02-15T04:26:07;102040.28;;;0.56;100.00
45467;BME280;31212;49.734;8.490;2023-02-15T04:28:34;102042.38;;;0.62;100.00
45467;BME280;31212;49.734;8.490;2023-02-15T04:31:00;102042.25;;;0.60;100.00
45467;BME280;31212;49.734;8.490;2023-02-15T04:33:27;102040.53;;;0.47;100.00
45467;BME280;31212;49.734;8.490;2023-02-15T04:35:55;102042.84;;;0.44;100.00
45467;BME280;31212;49.734;8.490;2023-02-15T04:38:21;102034.00;;;0.39;100.00
45467;BME280;31212;49.734;8.490;2023-02-15T04:40:49;102041.31;;;0.46;100.00
45467;BME280;31212;49.734;8.490;2023-02-15T04:43:17;102031.97;;;0.47;100.00
45467;BME280;31212;49.734;8.490;2023-02-15T04:45:47;102032.22;;;0.38;100.00
45467;BME280;31212;49.734;8.490;2023-02-15T04:48:14;102031.53;;;0.41;100.00
45467;BME280;31212;49.734;8.490;2023-02-15T04:50:41;102029.88;;;0.41;100.00
45467;BME280;31212;49.734;8.490;2023-02-15T04:53:08;102031.09;;;0.46;100.00
45467;BME280;31212;49.734;8.490;2023-02-15T04:55:35;102043.28;;;0.50;100.00
45467;BME280;31212;49.734;8.490;2023-02-15T04:58:03;102041.09;;;0.43;100.00
45467;BME280;31212;49.734;8.490;2023-02-15T05:00:29;102031.19;;;0.48;100.00
45467;BME280;31212;49.734;8.490;2023-02-15T05:02:55;102038.53;;;0.43;100.00
45467;BME280;31212;49.734;8.490;2023-02-15T05:05:22;102031.84;;;0.45;100.00
45467;BME280;31212;49.734;8.490;2023-02-15T05:07:48;102028.53;;;0.46;100.00
45467;BME280;31212;49.734;8.490;2023-02-15T05:10:17;102032.06;;;0.48;100.00
45467;BME280;31212;49.734;8.490;2023-02-15T05:12:43;102021.34;;;0.29;100.00
45467;BME280;31212;49.734;8.490;2023-02-15T05:15:10;102023.22;;;0.31;100.00
45467;BME280;31212;49.734;8.490;2023-02-15T05:17:36;102028.53;;;0.46;100.00
45467;BME280;31212;49.734;8.490;2023-02-15T05:20:03;102033.06;;;0.50;100.00
45467;BME280;31212;49.734;8.490;2023-02-15T05:22:30;102030.88;;;0.43;100.00
45467;BME280;31212;49.734;8.490;2023-02-15T05:24:56;102024.53;;;0.50;100.00
45467;BME280;31212;49.734;8.490;2023-02-15T05:27:42;102022.19;;;0.53;100.00
45467;BME280;31212;49.734;8.490;2023-02-15T05:30:26;102025.38;;;0.62;100.00
45467;BME280;31212;49.734;8.490;2023-02-15T05:32:54;102022.94;;;0.64;100.00
45467;BME280;31212;49.734;8.490;2023-02-15T05:35:21;102031.56;;;0.66;100.00
45467;BME280;31212;49.734;8.490;2023-02-15T05:37:47;102020.59;;;0.55;100.00
45467;BME280;31212;49.734;8.490;2023-02-15T05:40:14;102022.50;;;0.58;100.00
45467;BME280;31212;49.734;8.490;2023-02-15T05:42:40;102022.59;;;0.59;100.00
45467;BME280;31212;49.734;8.490;2023-02-15T05:45:08;102021.03;;;0.61;100.00
45467;BME280;31212;49.734;8.490;2023-02-15T05:47:35;102018.97;;;0.56;100.00
45467;BME280;31212;49.734;8.490;2023-02-15T05:50:02;102026.63;;;0.56;100.00
45467;BME280;31212;49.734;8.490;2023-02-15T05:52:28;102021.97;;;0.50;100.00
45467;BME280;31212;49.734;8.490;2023-02-15T05:54:55;102022.41;;;0.44;100.00
45467;BME280;31212;49.734;8.490;2023-02-15T05:57:21;102019.53;;;0.40;100.00
45467;BME280;31212;49.734;8.490;2023-02-15T05:59:48;102016.53;;;0.33;100.00
45467;BME280;31212;49.734;8.490;2023-02-15T06:02:15;102014.44;;;0.28;100.00
45467;BME280;31212;49.734;8.490;2023-02-15T06:04:42;102011.91;;;0.28;100.00
45467;BME280;31212;49.734;8.490;2023-02-15T06:07:09;102013.91;;;0.20;100.00
45467;BME280;31212;49.734;8.490;2023-02-15T06:09:36;102011.69;;;0.13;100.00
45467;BME280;31212;49.734;8.490;2023-02-15T06:12:02;102016.34;;;0.19;100.00
45467;BME280;31212;49.734;8.490;2023-02-15T06:14:29;102023.03;;;0.16;100.00
45467;BME280;31212;49.734;8.490;2023-02-15T06:16:55;102022.13;;;0.16;100.00
45467;BME280;31212;49.734;8.490;2023-02-15T06:19:23;102032.34;;;0.16;100.00
45467;BME280;31212;49.734;8.490;2023-02-15T06:21:50;102036.00;;;0.20;100.00
45467;BME280;31212;49.734;8.490;2023-02-15T06:24:16;102037.78;;;0.21;100.00
45467;BME280;31212;49.734;8.490;2023-02-15T06:26:43;102035.81;;;0.16;100.00
45467;BME280;31212;49.734;8.490;2023-02-15T06:29:09;102041.00;;;0.18;100.00
45467;BME280;31212;49.734;8.490;2023-02-15T06:31:36;102049.00;;;0.23;100.00
45467;BME280;31212;49.734;8.490;2023-02-15T06:34:02;102043.88;;;0.23;100.00
45467;BME280;31212;49.734;8.490;2023-02-15T06:36:30;102043.31;;;0.27;100.00
45467;BME280;31212;49.734;8.490;2023-02-15T06:38:57;102047.34;;;0.23;100.00
45467;BME280;31212;49.734;8.490;2023-02-15T06:41:23;102058.09;;;0.31;100.00
45467;BME280;31212;49.734;8.490;2023-02-15T06:43:50;102055.97;;;0.37;100.00
45467;BME280;31212;49.734;8.490;2023-02-15T06:46:17;102062.09;;;0.39;100.00
45467;BME280;31212;49.734;8.490;2023-02-15T06:48:43;102064.97;;;0.44;100.00
45467;BME280;31212;49.734;8.490;2023-02-15T06:51:10;102062.97;;;0.40;100.00
45467;BME280;31212;49.734;8.490;2023-02-15T06:53:38;102066.88;;;0.35;100.00
45467;BME280;31212;49.734;8.490;2023-02-15T06:56:07;102072.44;;;0.41;100.00
45467;BME280;31212;49.734;8.490;2023-02-15T06:58:34;102071.75;;;0.43;100.00
45467;BME280;31212;49.734;8.490;2023-02-15T07:01:01;102080.63;;;0.48;100.00
45467;BME280;31212;49.734;8.490;2023-02-15T07:03:28;102074.94;;;0.53;100.00
45467;BME280;31212;49.734;8.490;2023-02-15T07:05:55;102073.84;;;0.49;100.00
45467;BME280;31212;49.734;8.490;2023-02-15T07:08:22;102074.06;;;0.52;100.00
45467;BME280;31212;49.734;8.490;2023-02-15T07:10:50;102063.53;;;0.47;100.00
45467;BME280;31212;49.734;8.490;2023-02-15T07:13:17;102062.41;;;0.56;100.00
45467;BME280;31212;49.734;8.490;2023-02-15T07:15:43;102065.63;;;0.53;100.00
45467;BME280;31212;49.734;8.490;2023-02-15T07:18:09;102061.38;;;0.54;100.00
45467;BME280;31212;49.734;8.490;2023-02-15T07:20:37;102052.06;;;0.54;100.00
45467;BME280;31212;49.734;8.490;2023-02-15T07:23:04;102055.72;;;0.58;100.00
45467;BME280;31212;49.734;8.490;2023-02-15T07:25:31;102057.69;;;0.62;100.00
45467;BME280;31212;49.734;8.490;2023-02-15T07:28:00;102059.81;;;0.68;100.00
45467;BME280;31212;49.734;8.490;2023-02-15T07:30:27;102068.69;;;0.73;100.00
45467;BME280;31212;49.734;8.490;2023-02-15T07:32:55;102062.38;;;0.68;100.00
45467;BME280;31212;49.734;8.490;2023-02-15T07:35:46;102059.56;;;0.76;100.00
45467;BME280;31212;49.734;8.490;2023-02-15T07:38:13;102066.75;;;0.82;100.00
45467;BME280;31212;49.734;8.490;2023-02-15T07:40:40;102063.34;;;0.81;100.00
45467;BME280;31212;49.734;8.490;2023-02-15T07:43:08;102069.56;;;0.85;100.00
45467;BME280;31212;49.734;8.490;2023-02-15T07:45:35;102062.66;;;0.84;100.00
45467;BME280;31212;49.734;8.490;2023-02-15T07:48:01;102055.22;;;0.75;100.00
45467;BME280;31212;49.734;8.490;2023-02-15T07:50:28;102053.56;;;0.76;100.00
45467;BME280;31212;49.734;8.490;2023-02-15T07:52:55;102050.84;;;0.86;100.00
45467;BME280;31212;49.734;8.490;2023-02-15T07:55:21;102047.22;;;0.82;100.00
45467;BME280;31212;49.734;8.490;2023-02-15T07:57:49;102049.63;;;0.81;100.00
45467;BME280;31212;49.734;8.490;2023-02-15T08:00:18;102046.66;;;0.87;100.00
45467;BME280;31212;49.734;8.490;2023-02-15T08:02:48;102055.84;;;0.96;100.00
45467;BME280;31212;49.734;8.490;2023-02-15T08:05:36;102057.91;;;1.02;100.00
45467;BME280;31212;49.734;8.490;2023-02-15T08:08:03;102056.56;;;1.07;100.00
45467;BME280;31212;49.734;8.490;2023-02-15T08:10:30;102052.13;;;1.05;100.00
45467;BME280;31212;49.734;8.490;2023-02-15T08:13:10;102047.09;;;1.06;100.00
45467;BME280;31212;49.734;8.490;2023-02-15T08:15:38;102041.31;;;1.09;100.00
45467;BME280;31212;49.734;8.490;2023-02-15T08:18:05;102042.09;;;1.08;100.00
45467;BME280;31212;49.734;8.490;2023-02-15T08:20:31;102039.63;;;1.09;100.00
45467;BME280;31212;49.734;8.490;2023-02-15T08:22:58;102036.09;;;1.07;100.00
45467;BME280;31212;49.734;8.490;2023-02-15T08:25:25;102039.50;;;1.20;100.00
45467;BME280;31212;49.734;8.490;2023-02-15T08:27:51;102035.25;;;1.20;100.00
45467;BME280;31212;49.734;8.490;2023-02-15T08:30:18;102033.16;;;1.14;100.00
45467;BME280;31212;49.734;8.490;2023-02-15T08:32:46;102030.03;;;1.18;100.00
45467;BME280;31212;49.734;8.490;2023-02-15T08:35:12;102029.59;;;1.24;100.00
45467;BME280;31212;49.734;8.490;2023-02-15T08:37:39;102017.97;;;1.29;100.00
45467;BME280;31212;49.734;8.490;2023-02-15T08:40:06;102015.50;;;1.31;100.00
45467;BME280;31212;49.734;8.490;2023-02-15T08:42:33;102015.31;;;1.28;100.00
45467;BME280;31212;49.734;8.490;2023-02-15T08:45:00;102012.25;;;1.33;100.00
45467;BME280;31212;49.734;8.490;2023-02-15T08:47:27;102014.38;;;1.39;100.00
45467;BME280;31212;49.734;8.490;2023-02-15T08:49:55;102012.38;;;1.35;100.00
45467;BME280;31212;49.734;8.490;2023-02-15T08:52:22;102004.00;;;1.38;100.00
45467;BME280;31212;49.734;8.490;2023-02-15T08:54:48;101997.38;;;1.28;100.00
45467;BME280;31212;49.734;8.490;2023-02-15T08:57:14;101992.09;;;1.38;100.00
45467;BME280;31212;49.734;8.490;2023-02-15T08:59:41;101996.31;;;1.38;100.00
45467;BME280;31212;49.734;8.490;2023-02-15T09:02:09;101997.75;;;1.46;100.00
45467;BME280;31212;49.734;8.490;2023-02-15T09:04:36;101993.00;;;1.52;100.00
45467;BME280;31212;49.734;8.490;2023-02-15T09:07:04;101988.38;;;1.46;100.00
45467;BME280;31212;49.734;8.490;2023-02-15T09:09:31;102000.75;;;1.40;100.00
45467;BME280;31212;49.734;8.490;2023-02-15T09:11:57;101992.50;;;1.44;100.00
45467;BME280;31212;49.734;8.490;2023-02-15T09:14:24;101991.34;;;1.53;100.00
45467;BME280;31212;49.734;8.490;2023-02-15T09:16:52;101988.22;;;1.57;100.00
45467;BME280;31212;49.734;8.490;2023-02-15T09:19:20;101990.63;;;1.55;100.00
45467;BME280;31212;49.734;8.490;2023-02-15T09:21:47;101988.91;;;1.54;100.00
45467;BME280;31212;49.734;8.490;2023-02-15T09:24:16;101984.75;;;1.56;100.00
45467;BME280;31212;49.734;8.490;2023-02-15T09:26:44;101980.13;;;1.50;99.99
45467;BME280;31212;49.734;8.490;2023-02-15T09:29:12;101972.94;;;1.58;100.00
45467;BME280;31212;49.734;8.490;2023-02-15T09:31:42;101965.16;;;1.57;99.93
45467;BME280;31212;49.734;8.490;2023-02-15T09:34:10;101964.78;;;1.64;99.87
45467;BME280;31212;49.734;8.490;2023-02-15T09:36:38;101960.84;;;1.69;100.00
45467;BME280;31212;49.734;8.490;2023-02-15T09:39:07;101954.94;;;1.70;100.00
45467;BME280;31212;49.734;8.490;2023-02-15T09:42:11;101955.41;;;1.78;100.00
45467;BME280;31212;49.734;8.490;2023-02-15T09:45:12;101955.81;;;1.84;99.51
45467;BME280;31212;49.734;8.490;2023-02-15T09:50:56;101967.63;;;1.82;99.65
45467;BME280;31212;49.734;8.490;2023-02-15T09:53:39;101969.81;;;1.76;99.16
45467;BME280;31212;49.734;8.490;2023-02-15T09:56:12;101973.41;;;1.79;99.17
45467;BME280;31212;49.734;8.490;2023-02-15T09:58:48;101974.41;;;1.81;99.18
45467;BME280;31212;49.734;8.490;2023-02-15T10:01:28;101984.16;;;1.74;99.38
45467;BME280;31212;49.734;8.490;2023-02-15T10:04:14;101991.47;;;1.81;99.81
45467;BME280;31212;49.734;8.490;2023-02-15T10:06:52;101987.22;;;1.95;99.36
45467;BME280;31212;49.734;8.490;2023-02-15T10:09:45;101988.19;;;1.97;99.59
45467;BME280;31212;49.734;8.490;2023-02-15T10:12:32;101991.34;;;1.93;99.65
45467;BME280;31212;49.734;8.490;2023-02-15T10:15:22;101986.91;;;1.90;99.23
45467;BME280;31212;49.734;8.490;2023-02-15T10:18:09;101986.91;;;1.90;99.38
45467;BME280;31212;49.734;8.490;2023-02-15T10:20:43;101992.94;;;1.91;99.38
45467;BME280;31212;49.734;8.490;2023-02-15T10:23:29;101994.31;;;1.99;99.16
45467;BME280;31212;49.734;8.490;2023-02-15T10:26:04;101998.06;;;2.04;99.09
45467;BME280;31212;49.734;8.490;2023-02-15T10:28:42;102004.06;;;2.05;98.87
45467;BME280;31212;49.734;8.490;2023-02-15T10:31:19;102003.19;;;2.04;98.64
45467;BME280;31212;49.734;8.490;2023-02-15T10:33:55;101993.53;;;2.13;98.32
45467;BME280;31212;49.734;8.490;2023-02-15T10:36:35;101986.63;;;2.12;98.33
45467;BME280;31212;49.734;8.490;2023-02-15T10:39:10;101993.19;;;2.22;98.45
45467;BME280;31212;49.734;8.490;2023-02-15T10:41:46;101986.78;;;2.29;98.01
45467;BME280;31212;49.734;8.490;2023-02-15T10:44:37;101985.31;;;2.32;98.12
45467;BME280;31212;49.734;8.490;2023-02-15T10:47:19;101973.38;;;2.19;97.83
45467;BME280;31212;49.734;8.490;2023-02-15T10:50:03;101979.50;;;2.22;97.86
45467;BME280;31212;49.734;8.490;2023-02-15T10:52:43;101982.94;;;2.22;97.95
45467;BME280;31212;49.734;8.490;2023-02-15T10:55:24;101974.00;;;2.15;97.57
45467;BME280;31212;49.734;8.490;2023-02-15T10:58:02;101973.38;;;2.19;97.46
45467;BME280;31212;49.734;8.490;2023-02-15T11:00:37;101974.69;;;2.13;97.49
45467;BME280;31212;49.734;8.490;2023-02-15T11:03:26;101967.66;;;2.24;97.24
45467;BME280;31212;49.734;8.490;2023-02-15T11:06:03;101961.56;;;2.22;97.20
45467;BME280;31212;49.734;8.490;2023-02-15T11:08:33;101957.63;;;2.27;97.03
45467;BME280;31212;49.734;8.490;2023-02-15T11:11:03;101947.72;;;2.33;97.03
45467;BME280;31212;49.734;8.490;2023-02-15T11:13:34;101936.13;;;2.25;96.21
45467;BME280;31212;49.734;8.490;2023-02-15T11:16:05;101933.38;;;2.22;96.21
45467;BME280;31212;49.734;8.490;2023-02-15T11:18:37;101927.94;;;2.30;95.64
45467;BME280;31212;49.734;8.490;2023-02-15T11:21:07;101925.19;;;2.27;95.62
45467;BME280;31212;49.734;8.490;2023-02-15T11:23:40;101916.19;;;2.34;95.52
45467;BME280;31212;49.734;8.490;2023-02-15T11:26:13;101910.28;;;2.35;95.24
45467;BME280;31212;49.734;8.490;2023-02-15T11:28:43;101907.28;;;2.42;95.02
45467;BME280;31212;49.734;8.490;2023-02-15T11:31:15;101903.72;;;2.40;94.53
45467;BME280;31212;49.734;8.490;2023-02-15T11:33:47;101894.09;;;2.36;94.25
45467;BME280;31212;49.734;8.490;2023-02-15T11:36:17;101899.78;;;2.45;94.11
45467;BME280;31212;49.734;8.490;2023-02-15T11:38:46;101884.03;;;2.39;93.83
45467;BME280;31212;49.734;8.490;2023-02-15T11:41:16;101886.09;;;2.45;93.54
45467;BME280;31212;49.734;8.490;2023-02-15T11:43:50;101883.50;;;2.30;93.46
45467;BME280;31212;49.734;8.490;2023-02-15T11:46:20;101879.94;;;2.28;93.69
45467;BME280;31212;49.734;8.490;2023-02-15T11:48:48;101881.75;;;2.44;93.90
45467;BME280;31212;49.734;8.490;2023-02-15T11:51:17;101873.31;;;2.31;93.55
45467;BME280;31212;49.734;8.490;2023-02-15T11:53:45;101876.09;;;2.49;93.47
45467;BME280;31212;49.734;8.490;2023-02-15T11:56:14;101868.22;;;2.46;92.77
45467;BME280;31212;49.734;8.490;2023-02-15T11:58:43;101855.66;;;2.51;92.60
45467;BME280;31212;49.734;8.490;2023-02-15T12:01:15;101853.84;;;2.48;92.19
45467;BME280;31212;49.734;8.490;2023-02-15T12:03:45;101837.66;;;2.49;91.84
45467;BME280;31212;49.734;8.490;2023-02-15T12:06:19;101835.38;;;2.54;91.23
45467;BME280;31212;49.734;8.490;2023-02-15T12:08:52;101819.47;;;2.60;91.39
45467;BME280;31212;49.734;8.490;2023-02-15T12:11:25;101811.75;;;2.60;91.18
45467;BME280;31212;49.734;8.490;2023-02-15T12:13:55;101802.75;;;2.51;90.79
45467;BME280;31212;49.734;8.490;2023-02-15T12:16:22;101819.47;;;2.60;90.60
45467;BME280;31212;49.734;8.490;2023-02-15T12:18:50;101791.16;;;2.58;90.65
45467;BME280;31212;49.734;8.490;2023-02-15T12:21:27;101783.56;;;2.60;90.37
45467;BME280;31212;49.734;8.490;2023-02-15T12:23:57;101768.44;;;2.64;89.83
45467;BME280;31212;49.734;8.490;2023-02-15T12:26:25;101765.78;;;2.63;89.78
45467;BME280;31212;49.734;8.490;2023-02-15T12:28:54;101764.44;;;2.25;89.87
45467;BME280;31212;49.734;8.490;2023-02-15T12:31:26;101772.50;;;2.31;90.09
45467;BME280;31212;49.734;8.490;2023-02-15T12:33:57;101776.19;;;2.36;90.28
45467;BME280;31212;49.734;8.490;2023-02-15T12:36:29;101772.53;;;2.46;90.40
45467;BME280;31212;49.734;8.490;2023-02-15T12:39:05;101771.53;;;2.59;90.41
45467;BME280;31212;49.734;8.490;2023-02-15T12:41:32;101771.59;;;2.75;90.09
45467;BME280;31212;49.734;8.490;2023-02-15T12:44:05;101763.75;;;2.72;89.42
45467;BME280;31212;49.734;8.490;2023-02-15T12:46:32;101751.09;;;2.75;89.50
45467;BME280;31212;49.734;8.490;2023-02-15T12:49:07;101750.47;;;2.79;88.84
45467;BME280;31212;49.734;8.490;2023-02-15T12:51:46;101728.63;;;2.71;88.75
45467;BME280;31212;49.734;8.490;2023-02-15T12:54:20;101736.59;;;2.76;88.83
45467;BME280;31212;49.734;8.490;2023-02-15T12:56:52;101718.66;;;2.76;88.53
45467;BME280;31212;49.734;8.490;2023-02-15T12:59:19;101714.91;;;2.85;88.08
45467;BME280;31212;49.734;8.490;2023-02-15T13:01:46;101720.69;;;2.81;88.00
45467;BME280;31212;49.734;8.490;2023-02-15T13:04:19;101701.03;;;2.82;87.81
45467;BME280;31212;49.734;8.490;2023-02-15T13:06:50;101690.84;;;2.98;87.68
45467;BME280;31212;49.734;8.490;2023-02-15T13:09:20;101687.69;;;2.88;87.27
45467;BME280;31212;49.734;8.490;2023-02-15T13:11:49;101678.78;;;2.81;86.85
45467;BME280;31212;49.734;8.490;2023-02-15T13:14:18;101683.03;;;2.97;86.88
45467;BME280;31212;49.734;8.490;2023-02-15T13:16:47;101666.41;;;2.90;86.68
45467;BME280;31212;49.734;8.490;2023-02-15T13:19:15;101663.50;;;2.99;86.82